Time;durP1;ratioP1;P1;durP2;ratioP2;P2;SDS_P1;SDS_P2;PMS_P1;PMS_P2;Temp;Humidity;BMP_temperature;BMP_pressure;BME280_temperature;BME280_humidity;BME280_pressure;Samples;Min_cycle;Max_cycle;Signal;HPM_P1;HPM_P2
2022/07/09 00:00:14;;;;;;;2.93;1.33;;;;;;;;;;4973390;28;20507;-49
2022/07/09 00:02:40;;;;;;;1.20;1.10;;;;;;;;;;4975762;28;20038;-49
2022/07/09 00:05:06;;;;;;;3.60;1.23;;;;;;;;;;4984657;28;20030;-49
2022/07/09 00:07:32;;;;;;;2.13;1.30;;;;;;;;;;4977367;28;20027;-49
2022/07/09 00:09:58;;;;;;;1.50;1.40;;;;;;;;;;4985824;28;20027;-50
2022/07/09 00:12:24;;;;;;;4.57;1.67;;;;;;;;;;4991394;28;20034;-49
2022/07/09 00:14:50;;;;;;;1.60;1.33;;;;;;;;;;4984604;28;20451;-49
2022/07/09 00:17:17;;;;;;;4.63;1.50;;;;;;;;;;4984767;28;20034;-48
2022/07/09 00:19:43;;;;;;;4.82;2.28;;;;;;;;;;4976204;28;20265;-50
2022/07/09 00:22:09;;;;;;;3.90;1.87;;;;;;;;;;4980051;28;20113;-49
2022/07/09 00:24:35;;;;;;;5.83;1.77;;;;;;;;;;4993565;28;20061;-49
2022/07/09 00:27:01;;;;;;;2.45;1.85;;;;;;;;;;4993669;28;20026;-49
2022/07/09 00:29:27;;;;;;;5.93;2.17;;;;;;;;;;4992494;28;20019;-49
2022/07/09 00:31:53;;;;;;;3.07;2.23;;;;;;;;;;4978637;28;20269;-51
2022/07/09 00:34:19;;;;;;;6.80;2.23;;;;;;;;;;4993698;28;20026;-49
2022/07/09 00:36:45;;;;;;;3.23;2.20;;;;;;;;;;4991621;28;20038;-49
2022/07/09 00:39:11;;;;;;;8.37;2.70;;;;;;;;;;4992084;28;20269;-50
2022/07/09 00:41:37;;;;;;;5.10;2.90;;;;;;;;;;4991044;28;20026;-49
2022/07/09 00:44:03;;;;;;;4.53;2.37;;;;;;;;;;4974087;28;20780;-49
2022/07/09 00:46:29;;;;;;;2.60;2.22;;;;;;;;;;4978411;28;20042;-50
2022/07/09 00:48:55;;;;;;;5.10;2.47;;;;;;;;;;4973561;28;20488;-50
2022/07/09 00:51:21;;;;;;;4.63;2.10;;;;;;;;;;4973550;28;20399;-50
2022/07/09 00:53:48;;;;;;;4.68;2.78;;;;;;;;;;4989406;28;20037;-50
2022/07/09 00:56:15;;;;;;;5.38;2.17;;;;;;;;;;4974610;28;20039;-49
2022/07/09 00:58:42;;;;;;;4.20;1.95;;;;;;;;;;4973432;28;20034;-49
2022/07/09 01:01:08;;;;;;;2.65;2.22;;;;;;;;;;4982681;28;20027;-49
2022/07/09 01:03:34;;;;;;;6.22;2.70;;;;;;;;;;4991008;28;20030;-50
2022/07/09 01:06:01;;;;;;;4.70;2.37;;;;;;;;;;4975856;28;20052;-50
2022/07/09 01:08:27;;;;;;;3.03;2.22;;;;;;;;;;4971552;28;20023;-50
2022/07/09 01:10:54;;;;;;;4.97;2.77;;;;;;;;;;4972796;28;20077;-49
2022/07/09 01:13:19;;;;;;;;;;;;;;;;;;4983543;28;20755;-49
2022/07/09 01:15:46;;;;;;;7.28;2.72;;;;;;;;;;4974472;28;19941;-49
2022/07/09 01:18:14;;;;;;;2.63;2.10;;;;;;;;;;4973074;28;20034;-50
2022/07/09 01:20:40;;;;;;;2.83;2.10;;;;;;;;;;4975511;28;20030;-50
2022/07/09 01:23:07;;;;;;;3.73;1.93;;;;;;;;;;4980759;28;20514;-50
2022/07/09 01:25:37;;;;;;;2.60;1.90;;;;;;;;;;4990849;28;20034;-52
2022/07/09 01:28:05;;;;;;;2.63;2.03;;;;;;;;;;4974455;28;20059;-51
2022/07/09 01:30:32;;;;;;;4.93;2.42;;;;;;;;;;4972818;28;20023;-52
2022/07/09 01:32:58;;;;;;;3.15;2.00;;;;;;;;;;4973694;28;20043;-53
2022/07/09 01:35:24;;;;;;;2.10;1.80;;;;;;;;;;4972887;28;20031;-51
2022/07/09 01:37:50;;;;;;;7.17;2.23;;;;;;;;;;4972747;28;20102;-52
2022/07/09 01:40:16;;;;;;;4.88;2.20;;;;;;;;;;4985102;28;20269;-52
2022/07/09 01:42:42;;;;;;;4.87;1.93;;;;;;;;;;4991694;28;20487;-52
2022/07/09 01:45:08;;;;;;;4.83;2.20;;;;;;;;;;4978048;28;20427;-51
2022/07/09 01:47:34;;;;;;;3.10;2.38;;;;;;;;;;4976636;28;20054;-52
2022/07/09 01:50:01;;;;;;;2.43;2.00;;;;;;;;;;4995648;28;20033;-52
2022/07/09 01:52:27;;;;;;;5.50;2.42;;;;;;;;;;4991709;28;20105;-52
2022/07/09 01:54:53;;;;;;;5.05;2.13;;;;;;;;;;4984415;28;20069;-51
2022/07/09 01:57:19;;;;;;;4.20;2.20;;;;;;;;;;4993294;28;20030;-51
2022/07/09 01:59:45;;;;;;;5.80;2.57;;;;;;;;;;4993568;28;20097;-51
2022/07/09 02:02:11;;;;;;;4.50;2.30;;;;;;;;;;4993228;28;20030;-51
2022/07/09 02:04:37;;;;;;;6.90;2.00;;;;;;;;;;4975474;28;20030;-52
2022/07/09 02:07:04;;;;;;;5.95;2.20;;;;;;;;;;4977418;28;20383;-52
2022/07/09 02:09:30;;;;;;;5.88;2.65;;;;;;;;;;4992445;28;20044;-52
2022/07/09 02:11:56;;;;;;;6.30;2.25;;;;;;;;;;4984066;28;20046;-51
2022/07/09 02:14:22;;;;;;;3.70;2.60;;;;;;;;;;4989721;28;20026;-52
2022/07/09 02:16:49;;;;;;;3.95;2.45;;;;;;;;;;4976269;28;20026;-52
2022/07/09 02:19:15;;;;;;;3.20;2.42;;;;;;;;;;4990528;28;20122;-52
2022/07/09 02:21:41;;;;;;;7.10;2.83;;;;;;;;;;4976108;28;20054;-52
2022/07/09 02:24:07;;;;;;;4.80;2.50;;;;;;;;;;4977165;28;20038;-52
2022/07/09 02:26:33;;;;;;;3.65;2.30;;;;;;;;;;4976070;28;20035;-52
2022/07/09 02:29:01;;;;;;;5.23;2.90;;;;;;;;;;4976743;28;20039;-52
2022/07/09 02:31:27;;;;;;;4.75;2.28;;;;;;;;;;4975843;28;20026;-53
2022/07/09 02:33:53;;;;;;;7.55;2.88;;;;;;;;;;4980421;28;20030;-52
2022/07/09 02:36:19;;;;;;;4.03;2.57;;;;;;;;;;4995158;28;20380;-51
2022/07/09 02:38:45;;;;;;;5.85;2.20;;;;;;;;;;4994994;28;20056;-52
2022/07/09 02:41:11;;;;;;;6.40;3.15;;;;;;;;;;4995048;28;20105;-52
2022/07/09 02:43:38;;;;;;;7.80;2.73;;;;;;;;;;4990762;28;20049;-52
2022/07/09 02:46:04;;;;;;;4.82;2.58;;;;;;;;;;4980091;28;20110;-52
2022/07/09 02:48:31;;;;;;;6.03;2.72;;;;;;;;;;4986564;28;20034;-51
2022/07/09 02:50:57;;;;;;;5.50;2.72;;;;;;;;;;4988374;28;20031;-51
2022/07/09 02:53:24;;;;;;;7.43;2.50;;;;;;;;;;4975500;28;20045;-51
2022/07/09 02:55:50;;;;;;;4.88;2.75;;;;;;;;;;4983512;28;20031;-51
2022/07/09 02:58:16;;;;;;;2.23;2.03;;;;;;;;;;4975181;28;20443;-51
2022/07/09 03:00:42;;;;;;;2.90;2.17;;;;;;;;;;4981730;28;20109;-52
2022/07/09 03:03:08;;;;;;;8.25;2.33;;;;;;;;;;4994055;28;20035;-51
2022/07/09 03:05:35;;;;;;;3.53;2.75;;;;;;;;;;4982201;28;20041;-52
2022/07/09 03:08:01;;;;;;;9.80;3.03;;;;;;;;;;4985160;28;20455;-51
2022/07/09 03:10:27;;;;;;;7.10;2.60;;;;;;;;;;4984073;28;20039;-51
2022/07/09 03:12:53;;;;;;;5.63;2.73;;;;;;;;;;4982283;28;20026;-52
2022/07/09 03:15:19;;;;;;;5.77;2.90;;;;;;;;;;4994491;28;20125;-51
2022/07/09 03:17:46;;;;;;;4.37;2.63;;;;;;;;;;4998870;28;20027;-51
2022/07/09 03:20:12;;;;;;;5.25;2.78;;;;;;;;;;4992724;28;20034;-51
2022/07/09 03:22:39;;;;;;;4.63;2.63;;;;;;;;;;4993247;28;20032;-52
2022/07/09 03:25:05;;;;;;;2.85;2.53;;;;;;;;;;4993030;28;20563;-52
2022/07/09 03:27:31;;;;;;;5.65;2.78;;;;;;;;;;4993266;28;20034;-52
2022/07/09 03:29:57;;;;;;;3.92;2.38;;;;;;;;;;4983382;28;20053;-52
2022/07/09 03:32:24;;;;;;;7.53;3.05;;;;;;;;;;4975789;28;20030;-52
2022/07/09 03:34:52;;;;;;;8.02;3.08;;;;;;;;;;4974681;28;20033;-53
2022/07/09 03:37:18;;;;;;;4.95;2.85;;;;;;;;;;4973487;28;20041;-52
2022/07/09 03:39:44;;;;;;;8.37;2.90;;;;;;;;;;4974284;28;20388;-53
2022/07/09 03:42:11;;;;;;;4.50;2.75;;;;;;;;;;4982524;28;20081;-51
2022/07/09 03:44:37;;;;;;;6.68;3.05;;;;;;;;;;4978009;28;20035;-52
2022/07/09 03:47:03;;;;;;;3.47;3.10;;;;;;;;;;4981083;28;20042;-52
2022/07/09 03:49:29;;;;;;;4.68;3.22;;;;;;;;;;4974227;28;20098;-52
2022/07/09 03:51:56;;;;;;;5.27;3.30;;;;;;;;;;4973186;28;20137;-52
2022/07/09 03:54:22;;;;;;;7.00;3.58;;;;;;;;;;4990273;28;20482;-52
2022/07/09 03:56:48;;;;;;;6.80;3.95;;;;;;;;;;4993934;28;20027;-52
2022/07/09 03:59:14;;;;;;;5.37;3.53;;;;;;;;;;4993705;28;20045;-52
2022/07/09 04:01:40;;;;;;;5.83;3.60;;;;;;;;;;4992897;28;20114;-52
2022/07/09 04:04:06;;;;;;;3.17;2.88;;;;;;;;;;4993566;28;20480;-54
2022/07/09 04:06:32;;;;;;;6.00;3.22;;;;;;;;;;4993512;28;20483;-51
2022/07/09 04:09:03;;;;;;;4.10;3.67;;;;;;;;;;4992047;28;20031;-52
2022/07/09 04:11:29;;;;;;;5.72;3.83;;;;;;;;;;4992187;28;20026;-53
2022/07/09 04:13:55;;;;;;;4.23;3.40;;;;;;;;;;4992837;28;20044;-52
2022/07/09 04:16:21;;;;;;;3.50;3.20;;;;;;;;;;4993868;28;20030;-53
2022/07/09 04:18:48;;;;;;;7.28;3.45;;;;;;;;;;4993504;28;20026;-54
2022/07/09 04:21:14;;;;;;;3.37;3.00;;;;;;;;;;4992824;28;20030;-52
2022/07/09 04:23:40;;;;;;;4.53;4.13;;;;;;;;;;4993881;28;20037;-52
2022/07/09 04:26:06;;;;;;;5.15;3.72;;;;;;;;;;4993698;28;20030;-52
2022/07/09 04:28:32;;;;;;;4.07;3.30;;;;;;;;;;4993621;28;20026;-53
2022/07/09 04:30:58;;;;;;;4.10;3.53;;;;;;;;;;4993149;28;20037;-56
2022/07/09 04:33:24;;;;;;;6.70;3.13;;;;;;;;;;4993181;28;20492;-56
2022/07/09 04:35:50;;;;;;;9.40;3.37;;;;;;;;;;4992921;28;20562;-53
2022/07/09 04:38:16;;;;;;;7.57;3.45;;;;;;;;;;4992937;28;20058;-54
2022/07/09 04:40:51;;;;;;;6.57;3.37;;;;;;;;;;4992757;28;20026;-55
2022/07/09 04:43:17;;;;;;;11.82;3.35;;;;;;;;;;4993056;28;20026;-56
2022/07/09 04:45:43;;;;;;;6.97;3.00;;;;;;;;;;4993032;28;20079;-57
2022/07/09 04:48:09;;;;;;;7.80;3.60;;;;;;;;;;4992910;28;20070;-58
2022/07/09 04:50:35;;;;;;;4.25;3.08;;;;;;;;;;4992678;28;20507;-57
2022/07/09 04:53:01;;;;;;;6.67;3.40;;;;;;;;;;4992837;28;20034;-54
2022/07/09 04:55:27;;;;;;;7.82;3.25;;;;;;;;;;4992723;28;20034;-56
2022/07/09 04:57:53;;;;;;;4.50;3.00;;;;;;;;;;4992698;28;20030;-55
2022/07/09 05:00:19;;;;;;;12.73;3.45;;;;;;;;;;4991879;28;20130;-56
2022/07/09 05:02:46;;;;;;;3.57;3.23;;;;;;;;;;4992763;28;20022;-57
2022/07/09 05:05:13;;;;;;;4.13;3.13;;;;;;;;;;4992650;28;20272;-56
2022/07/09 05:07:40;;;;;;;8.38;3.08;;;;;;;;;;4992724;28;20582;-56
2022/07/09 05:10:07;;;;;;;7.90;3.03;;;;;;;;;;4992486;28;20487;-57
2022/07/09 05:12:33;;;;;;;6.28;3.22;;;;;;;;;;4992619;28;20073;-57
2022/07/09 05:14:59;;;;;;;5.97;2.80;;;;;;;;;;4991888;28;20035;-56
2022/07/09 05:17:25;;;;;;;3.60;3.13;;;;;;;;;;4990926;28;20754;-56
2022/07/09 05:19:51;;;;;;;10.98;3.63;;;;;;;;;;4992173;28;20034;-55
2022/07/09 05:22:17;;;;;;;9.63;3.55;;;;;;;;;;4992402;28;20069;-57
2022/07/09 05:24:43;;;;;;;5.85;2.92;;;;;;;;;;4992651;28;20027;-58
2022/07/09 05:27:10;;;;;;;9.30;3.92;;;;;;;;;;4992469;28;20030;-57
2022/07/09 05:29:36;;;;;;;6.97;4.10;;;;;;;;;;4992090;28;20027;-58
2022/07/09 05:32:02;;;;;;;5.45;3.17;;;;;;;;;;4992320;28;20031;-57
2022/07/09 05:34:29;;;;;;;7.28;3.13;;;;;;;;;;4992488;28;20033;-53
2022/07/09 05:36:55;;;;;;;8.40;3.27;;;;;;;;;;4992293;28;20038;-53
2022/07/09 05:39:22;;;;;;;8.48;3.20;;;;;;;;;;4992119;28;20285;-55
2022/07/09 05:41:48;;;;;;;7.18;3.03;;;;;;;;;;4992427;28;20375;-54
2022/07/09 05:44:14;;;;;;;6.07;3.33;;;;;;;;;;4992277;28;20483;-53
2022/07/09 05:46:40;;;;;;;6.85;3.25;;;;;;;;;;4992244;28;20693;-53
2022/07/09 05:49:07;;;;;;;6.07;3.40;;;;;;;;;;4991934;28;20054;-54
2022/07/09 05:51:33;;;;;;;8.10;3.78;;;;;;;;;;4992170;28;20081;-52
2022/07/09 05:54:00;;;;;;;7.13;3.47;;;;;;;;;;4992168;28;20034;-52
2022/07/09 05:56:26;;;;;;;8.57;3.80;;;;;;;;;;4992105;28;20030;-52
2022/07/09 05:58:52;;;;;;;8.82;3.42;;;;;;;;;;4991842;28;20034;-52
2022/07/09 06:01:19;;;;;;;9.57;3.85;;;;;;;;;;4992134;28;20026;-52
2022/07/09 06:03:46;;;;;;;5.57;3.10;;;;;;;;;;4992042;28;20080;-53
2022/07/09 06:06:13;;;;;;;6.18;2.90;;;;;;;;;;4990783;28;20114;-52
2022/07/09 06:08:39;;;;;;;8.48;3.05;;;;;;;;;;4991844;28;20093;-53
2022/07/09 06:11:06;;;;;;;5.40;3.10;;;;;;;;;;4990741;28;20550;-52
2022/07/09 06:13:32;;;;;;;6.90;2.90;;;;;;;;;;4991978;28;20026;-55
2022/07/09 06:15:58;;;;;;;5.93;2.83;;;;;;;;;;4990643;28;20030;-53
2022/07/09 06:18:24;;;;;;;3.40;2.70;;;;;;;;;;4991753;28;20062;-54
2022/07/09 06:20:50;;;;;;;9.20;3.27;;;;;;;;;;4991897;28;20315;-52
2022/07/09 06:23:16;;;;;;;9.63;2.50;;;;;;;;;;4991929;28;20054;-53
2022/07/09 06:25:42;;;;;;;4.05;2.40;;;;;;;;;;4991976;28;20037;-52
2022/07/09 06:28:08;;;;;;;5.90;2.43;;;;;;;;;;4994588;28;20028;-52
2022/07/09 06:30:34;;;;;;;5.30;2.43;;;;;;;;;;4995441;28;20109;-52
2022/07/09 06:33:00;;;;;;;5.10;2.57;;;;;;;;;;4995368;28;20758;-53
2022/07/09 06:35:26;;;;;;;5.50;2.20;;;;;;;;;;4995437;28;20112;-53
2022/07/09 06:37:52;;;;;;;7.30;2.03;;;;;;;;;;4994055;28;20480;-52
2022/07/09 06:40:18;;;;;;;3.77;1.53;;;;;;;;;;4995230;28;20658;-54
2022/07/09 06:42:44;;;;;;;2.13;1.30;;;;;;;;;;4995150;28;20533;-53
2022/07/09 06:45:10;;;;;;;16.93;2.67;;;;;;;;;;4995246;28;20042;-52
2022/07/09 06:47:37;;;;;;;6.15;1.08;;;;;;;;;;4995053;28;20038;-53
2022/07/09 06:50:03;;;;;;;8.38;1.20;;;;;;;;;;4994900;28;20105;-52
2022/07/09 06:52:29;;;;;;;7.13;1.33;;;;;;;;;;4995204;28;20038;-52
2022/07/09 06:54:55;;;;;;;4.10;1.00;;;;;;;;;;4995060;28;20029;-55
2022/07/09 06:57:21;;;;;;;4.00;1.10;;;;;;;;;;4993730;28;20030;-53
2022/07/09 06:59:47;;;;;;;3.17;0.97;;;;;;;;;;4994626;28;20175;-53
2022/07/09 07:02:16;;;;;;;11.67;1.20;;;;;;;;;;4995100;28;20018;-53
2022/07/09 07:04:42;;;;;;;4.25;1.08;;;;;;;;;;4994931;28;20311;-53
2022/07/09 07:07:08;;;;;;;3.88;0.90;;;;;;;;;;4994834;28;20026;-54
2022/07/09 07:09:34;;;;;;;2.85;0.70;;;;;;;;;;4994543;28;20023;-54
2022/07/09 07:12:00;;;;;;;3.08;0.80;;;;;;;;;;4994620;28;20385;-53
2022/07/09 07:14:26;;;;;;;3.92;1.02;;;;;;;;;;4994797;28;20018;-54
2022/07/09 07:16:53;;;;;;;4.43;1.75;;;;;;;;;;4994588;28;20541;-56
2022/07/09 07:19:22;;;;;;;2.67;0.70;;;;;;;;;;4994304;28;20487;-54
2022/07/09 07:21:49;;;;;;;5.28;1.25;;;;;;;;;;4994600;28;20491;-54
2022/07/09 07:24:15;;;;;;;2.35;0.90;;;;;;;;;;4994511;28;20026;-53
2022/07/09 07:26:42;;;;;;;2.10;0.85;;;;;;;;;;4994458;28;20022;-55
2022/07/09 07:29:08;;;;;;;2.75;0.95;;;;;;;;;;4994193;28;20026;-55
2022/07/09 07:31:34;;;;;;;3.93;1.00;;;;;;;;;;4994336;28;20112;-53
2022/07/09 07:34:00;;;;;;;3.38;0.90;;;;;;;;;;4994520;28;20638;-54
2022/07/09 07:36:26;;;;;;;3.53;1.70;;;;;;;;;;4994273;28;20029;-56
2022/07/09 07:38:53;;;;;;;8.43;1.10;;;;;;;;;;4993226;28;20114;-55
2022/07/09 07:41:20;;;;;;;2.75;0.90;;;;;;;;;;4992766;28;20073;-52
2022/07/09 07:43:46;;;;;;;7.95;1.65;;;;;;;;;;4994291;28;20114;-54
2022/07/09 07:46:12;;;;;;;4.40;0.70;;;;;;;;;;4994126;28;20033;-53
2022/07/09 07:48:40;;;;;;;5.57;0.93;;;;;;;;;;4993840;28;20285;-53
2022/07/09 07:51:07;;;;;;;4.95;0.70;;;;;;;;;;4993937;28;20258;-54
2022/07/09 07:53:33;;;;;;;0.97;0.70;;;;;;;;;;4993886;28;20479;-54
2022/07/09 07:56:00;;;;;;;10.18;1.13;;;;;;;;;;4993896;28;20646;-52
2022/07/09 07:58:26;;;;;;;6.65;1.13;;;;;;;;;;4993519;28;20089;-53
2022/07/09 08:00:53;;;;;;;7.20;2.50;;;;;;;;;;4992534;28;20022;-56
2022/07/09 08:03:19;;;;;;;1.75;0.90;;;;;;;;;;4993862;28;20262;-53
2022/07/09 08:05:46;;;;;;;2.20;1.05;;;;;;;;;;4993792;28;20110;-53
2022/07/09 08:08:12;;;;;;;;;;;;;;;;;;4994098;28;20118;-53
2022/07/09 08:10:38;;;;;;;1.10;0.80;;;;;;;;;;4993654;28;19945;-53
2022/07/09 08:13:04;;;;;;;6.07;0.73;;;;;;;;;;4993687;28;20030;-54
2022/07/09 08:15:30;;;;;;;1.33;1.23;;;;;;;;;;4992163;28;20864;-54
2022/07/09 08:17:56;;;;;;;1.60;0.95;;;;;;;;;;4993428;28;20025;-53
2022/07/09 08:20:23;;;;;;;1.90;0.90;;;;;;;;;;4992205;28;20369;-54
2022/07/09 08:22:49;;;;;;;3.75;0.93;;;;;;;;;;4993459;28;20026;-54
2022/07/09 08:25:15;;;;;;;2.10;0.65;;;;;;;;;;4993239;28;20034;-54
2022/07/09 08:27:41;;;;;;;5.32;0.95;;;;;;;;;;4993257;28;20034;-54
2022/07/09 08:30:07;;;;;;;7.28;1.00;;;;;;;;;;4992883;28;20035;-54
2022/07/09 08:32:33;;;;;;;2.88;1.48;;;;;;;;;;4993239;28;20036;-54
2022/07/09 08:34:59;;;;;;;4.85;1.25;;;;;;;;;;4993101;28;20033;-54
2022/07/09 08:37:25;;;;;;;2.13;0.80;;;;;;;;;;4991782;28;20057;-53
2022/07/09 08:39:52;;;;;;;1.42;0.65;;;;;;;;;;4992792;28;20265;-55
2022/07/09 08:42:18;;;;;;;2.25;0.80;;;;;;;;;;4991679;28;20081;-55
2022/07/09 08:44:46;;;;;;;5.35;1.00;;;;;;;;;;4992910;28;20034;-55
2022/07/09 08:47:14;;;;;;;2.20;0.75;;;;;;;;;;4992887;28;20392;-54
2022/07/09 08:49:41;;;;;;;0.77;0.65;;;;;;;;;;4992425;28;20038;-55
2022/07/09 08:52:07;;;;;;;3.80;0.70;;;;;;;;;;4992892;28;20054;-55
2022/07/09 08:54:37;;;;;;;3.20;1.17;;;;;;;;;;4992707;28;20029;-57
2022/07/09 08:57:03;;;;;;;4.00;1.63;;;;;;;;;;4992716;28;20031;-56
2022/07/09 08:59:30;;;;;;;8.77;2.28;;;;;;;;;;4992477;28;20057;-57
2022/07/09 09:01:56;;;;;;;7.50;1.48;;;;;;;;;;4992848;28;20480;-56
2022/07/09 09:04:22;;;;;;;1.35;0.75;;;;;;;;;;4992756;28;20052;-57
2022/07/09 09:06:48;;;;;;;;;;;;;;;;;;4993068;28;20031;-55
2022/07/09 09:09:18;;;;;;;3.80;0.70;;;;;;;;;;4992209;28;20013;-56
2022/07/09 09:11:47;;;;;;;4.93;1.02;;;;;;;;;;4992509;28;20523;-57
2022/07/09 09:14:18;;;;;;;4.75;0.88;;;;;;;;;;4992609;28;20487;-53
2022/07/09 09:16:44;;;;;;;2.65;0.50;;;;;;;;;;4992435;28;20026;-56
2022/07/09 09:19:10;;;;;;;3.85;1.52;;;;;;;;;;4990991;28;20034;-57
2022/07/09 09:21:37;;;;;;;6.15;0.70;;;;;;;;;;4992508;28;20050;-56
2022/07/09 09:24:03;;;;;;;4.20;0.73;;;;;;;;;;4992557;28;20022;-56
2022/07/09 09:26:29;;;;;;;3.20;1.40;;;;;;;;;;4992423;28;20146;-57
2022/07/09 09:29:03;;;;;;;1.95;0.57;;;;;;;;;;4992078;28;20031;-57
2022/07/09 09:31:30;;;;;;;4.65;0.93;;;;;;;;;;4992449;28;20034;-57
2022/07/09 09:33:58;;;;;;;1.63;0.60;;;;;;;;;;4992375;28;20030;-56
2022/07/09 09:36:31;;;;;;;1.77;0.68;;;;;;;;;;4990929;28;20122;-54
2022/07/09 09:39:09;;;;;;;1.83;1.15;;;;;;;;;;4992097;28;20372;-55
2022/07/09 09:41:35;;;;;;;0.80;0.50;;;;;;;;;;4992320;28;20400;-57
2022/07/09 09:44:05;;;;;;;4.55;0.95;;;;;;;;;;4992169;28;20022;-55
2022/07/09 09:46:33;;;;;;;7.38;1.10;;;;;;;;;;4992362;28;20026;-55
2022/07/09 09:48:59;;;;;;;0.93;0.50;;;;;;;;;;4991926;28;20109;-55
2022/07/09 09:51:28;;;;;;;3.33;0.93;;;;;;;;;;4992209;28;20491;-55
2022/07/09 09:53:54;;;;;;;2.90;0.77;;;;;;;;;;4991956;28;20034;-56
2022/07/09 09:56:21;;;;;;;4.43;0.85;;;;;;;;;;4990626;28;20033;-55
2022/07/09 09:58:47;;;;;;;;;;;;;;;;;;4992188;28;20035;-54
2022/07/09 10:01:13;;;;;;;3.88;0.70;;;;;;;;;;4992124;28;19913;-54
2022/07/09 10:03:39;;;;;;;3.53;0.68;;;;;;;;;;4995983;28;20018;-58
2022/07/09 10:06:06;;;;;;;;;;;;;;;;;;4996415;28;20117;-58
2022/07/09 10:08:32;;;;;;;1.75;0.40;;;;;;;;;;4995646;28;19905;-56
2022/07/09 10:10:58;;;;;;;1.60;0.90;;;;;;;;;;4995879;28;20026;-58
2022/07/09 10:13:24;;;;;;;1.80;0.70;;;;;;;;;;4995840;28;20035;-57
2022/07/09 10:15:51;;;;;;;1.08;0.60;;;;;;;;;;4995617;28;20077;-55
2022/07/09 10:18:18;;;;;;;1.08;0.50;;;;;;;;;;4995589;28;20026;-54
2022/07/09 10:20:44;;;;;;;1.17;0.63;;;;;;;;;;4995587;28;20551;-57
2022/07/09 10:23:22;;;;;;;2.25;0.70;;;;;;;;;;4995570;28;20030;-57
2022/07/09 10:25:50;;;;;;;1.40;0.60;;;;;;;;;;4995637;28;20077;-57
2022/07/09 10:28:20;;;;;;;1.52;0.55;;;;;;;;;;4995484;28;20026;-58
2022/07/09 10:30:47;;;;;;;2.03;0.60;;;;;;;;;;4995269;28;20105;-55
2022/07/09 10:33:13;;;;;;;7.10;0.90;;;;;;;;;;4995531;28;20030;-55
2022/07/09 10:35:44;;;;;;;6.22;0.98;;;;;;;;;;4995356;28;20030;-56
2022/07/09 10:38:10;;;;;;;3.53;0.90;;;;;;;;;;4995221;28;20446;-56
2022/07/09 10:40:43;;;;;;;3.45;1.48;;;;;;;;;;4995076;28;20025;-56
2022/07/09 10:43:10;;;;;;;1.17;0.60;;;;;;;;;;4995286;28;20027;-56
2022/07/09 10:45:38;;;;;;;5.82;0.90;;;;;;;;;;4991558;28;20018;-55
2022/07/09 10:48:05;;;;;;;5.28;0.82;;;;;;;;;;4985273;28;20029;-56
2022/07/09 10:50:32;;;;;;;3.72;1.08;;;;;;;;;;4975331;28;20078;-56
2022/07/09 10:53:03;;;;;;;2.28;0.90;;;;;;;;;;4977512;28;20038;-57
2022/07/09 10:55:29;;;;;;;2.45;0.65;;;;;;;;;;4987928;28;20022;-56
2022/07/09 10:57:55;;;;;;;5.72;0.82;;;;;;;;;;4975551;28;20031;-55
2022/07/09 11:00:23;;;;;;;0.68;0.68;;;;;;;;;;5030535;23;20046;-57
2022/07/09 11:02:52;;;;;;;3.13;0.90;;;;;;;;;;5018959;28;20025;-55
2022/07/09 11:05:18;;;;;;;1.35;0.65;;;;;;;;;;5018504;28;20037;-54
2022/07/09 11:07:54;;;;;;;4.78;2.00;;;;;;;;;;5014496;28;20517;-55
2022/07/09 11:10:20;;;;;;;1.52;0.70;;;;;;;;;;5009361;28;20026;-55
2022/07/09 11:12:49;;;;;;;1.90;0.98;;;;;;;;;;5014051;28;20037;-54
2022/07/09 11:15:19;;;;;;;2.55;0.77;;;;;;;;;;5011817;28;20040;-54
2022/07/09 11:17:54;;;;;;;1.65;0.70;;;;;;;;;;5000401;28;20022;-55
2022/07/09 11:20:20;;;;;;;2.25;0.50;;;;;;;;;;5005323;28;20061;-56
2022/07/09 11:22:48;;;;;;;0.75;0.57;;;;;;;;;;4999437;28;20034;-55
2022/07/09 11:25:15;;;;;;;6.22;1.23;;;;;;;;;;5001234;28;20033;-56
2022/07/09 11:27:41;;;;;;;2.75;1.05;;;;;;;;;;5007301;28;20359;-54
2022/07/09 11:30:11;;;;;;;2.13;0.77;;;;;;;;;;5013104;28;20113;-54
2022/07/09 11:32:37;;;;;;;5.43;1.38;;;;;;;;;;5013541;28;20506;-53
2022/07/09 11:35:04;;;;;;;1.58;0.82;;;;;;;;;;5013987;28;20052;-54
2022/07/09 11:37:30;;;;;;;1.92;0.85;;;;;;;;;;5013635;28;20030;-53
2022/07/09 11:39:56;;;;;;;1.25;0.75;;;;;;;;;;5015107;28;20084;-57
2022/07/09 11:42:22;;;;;;;1.85;0.60;;;;;;;;;;5013542;28;20022;-53
2022/07/09 11:44:59;;;;;;;1.13;0.68;;;;;;;;;;5013584;28;20022;-53
2022/07/09 11:47:32;;;;;;;5.57;1.75;;;;;;;;;;5013594;28;20037;-57
2022/07/09 11:50:11;;;;;;;3.70;0.82;;;;;;;;;;5013203;28;20018;-53
2022/07/09 11:52:44;;;;;;;2.25;0.77;;;;;;;;;;5013351;28;20433;-54
2022/07/09 11:55:11;;;;;;;2.22;0.90;;;;;;;;;;5005923;28;20442;-54
2022/07/09 11:57:38;;;;;;;6.72;1.13;;;;;;;;;;5013487;28;20024;-53
2022/07/09 12:00:05;;;;;;;3.30;0.60;;;;;;;;;;5012878;28;20084;-54
2022/07/09 12:02:33;;;;;;;2.05;0.75;;;;;;;;;;5013620;28;20493;-59
2022/07/09 12:04:59;;;;;;;2.13;0.93;;;;;;;;;;5012808;28;20117;-53
2022/07/09 12:07:26;;;;;;;1.35;0.65;;;;;;;;;;5012481;28;20393;-56
2022/07/09 12:09:59;;;;;;;1.92;0.55;;;;;;;;;;5013023;28;20050;-55
2022/07/09 12:12:25;;;;;;;2.58;0.70;;;;;;;;;;5012834;28;20080;-53
2022/07/09 12:14:51;;;;;;;1.05;0.80;;;;;;;;;;5012741;28;20104;-53
2022/07/09 12:17:19;;;;;;;2.63;1.30;;;;;;;;;;5012836;28;20076;-56
2022/07/09 12:19:45;;;;;;;2.45;1.10;;;;;;;;;;5011879;28;20029;-53
2022/07/09 12:22:11;;;;;;;4.82;0.95;;;;;;;;;;5011027;28;20018;-53
2022/07/09 12:24:37;;;;;;;;;;;;;;;;;;5012799;28;20398;-56
2022/07/09 12:27:04;;;;;;;2.25;0.90;;;;;;;;;;5013008;28;20002;-52
2022/07/09 12:29:30;;;;;;;1.60;0.73;;;;;;;;;;5011366;28;20056;-57
2022/07/09 12:31:56;;;;;;;1.50;0.63;;;;;;;;;;5012163;28;20030;-56
2022/07/09 12:34:23;;;;;;;7.47;1.20;;;;;;;;;;5012639;28;20398;-57
2022/07/09 12:36:49;;;;;;;2.80;0.85;;;;;;;;;;5012215;28;20391;-53
2022/07/09 12:39:15;;;;;;;1.33;0.75;;;;;;;;;;5011979;28;20101;-53
2022/07/09 12:41:42;;;;;;;5.43;0.85;;;;;;;;;;5012388;28;20069;-53
2022/07/09 12:44:08;;;;;;;2.38;0.88;;;;;;;;;;5012600;28;20018;-53
2022/07/09 12:46:34;;;;;;;4.65;1.00;;;;;;;;;;5012350;28;20064;-53
2022/07/09 12:49:01;;;;;;;0.75;0.70;;;;;;;;;;5012277;28;20518;-56
2022/07/09 12:51:27;;;;;;;0.95;0.57;;;;;;;;;;5012368;28;20033;-55
2022/07/09 12:53:53;;;;;;;0.98;0.65;;;;;;;;;;5011306;28;20037;-53
2022/07/09 12:56:20;;;;;;;;;;;;;;;;;;5012819;28;20367;-55
2022/07/09 12:58:46;;;;;;;4.93;0.95;;;;;;;;;;5012085;28;19956;-53
2022/07/09 13:01:12;;;;;;;0.93;0.70;;;;;;;;;;5012107;28;20394;-53
2022/07/09 13:03:38;;;;;;;0.95;0.70;;;;;;;;;;5011911;28;20052;-54
2022/07/09 13:06:30;;;;;;;3.45;0.75;;;;;;;;;;5011543;28;20026;-53
2022/07/09 13:08:50;;;;;;;11.18;1.15;;;;;;;;;;5011889;28;20126;-53
2022/07/09 13:11:16;;;;;;;3.97;1.17;;;;;;;;;;5011681;28;20037;-54
2022/07/09 13:13:42;;;;;;;2.15;0.80;;;;;;;;;;5011830;28;20036;-52
2022/07/09 13:16:09;;;;;;;2.22;0.75;;;;;;;;;;5011765;28;20030;-54
2022/07/09 13:18:35;;;;;;;4.13;1.50;;;;;;;;;;5011690;28;20394;-54
2022/07/09 13:21:01;;;;;;;10.68;7.35;;;;;;;;;;5011754;28;20076;-55
2022/07/09 13:23:27;;;;;;;2.17;0.85;;;;;;;;;;5011852;28;20049;-54
2022/07/09 13:25:53;;;;;;;3.85;1.25;;;;;;;;;;5010717;28;20025;-54
2022/07/09 13:28:19;;;;;;;2.88;1.02;;;;;;;;;;5010516;28;20033;-56
2022/07/09 13:30:45;;;;;;;3.45;1.00;;;42.60;24.00;;;;;;5011549;28;20041;-54
2022/07/09 13:33:11;;;;;;;2.75;1.10;;;36.60;33.40;;;;;;5011504;28;20030;-56
2022/07/09 13:35:36;;;;;;;1.05;0.65;;;37.90;31.50;;;;;;5011793;28;20375;-54
2022/07/09 13:38:03;;;;;;;7.25;0.80;;;39.40;29.30;;;;;;5014976;28;20101;-55
2022/07/09 13:40:28;;;;;;;1.50;0.88;;;40.60;28.70;;;;;;5015546;28;20022;-54
2022/07/09 13:42:54;;;;;;;0.98;0.80;;;41.70;27.70;;;;;;5015923;28;20033;-54
2022/07/09 13:45:20;;;;;;;2.67;1.00;;;42.80;27.00;;;;;;5014364;28;20036;-54
2022/07/09 13:47:46;;;;;;;1.58;0.60;;;43.20;26.40;;;;;;5015570;28;20076;-54
2022/07/09 13:50:11;;;;;;;1.17;0.77;;;43.00;25.90;;;;;;5015026;28;20084;-54
2022/07/09 13:52:37;;;;;;;2.78;0.90;;;42.60;26.40;;;;;;5015773;28;20112;-57
2022/07/09 13:55:03;;;;;;;6.80;1.13;;;42.00;25.80;;;;;;5015624;28;20394;-57
2022/07/09 13:57:29;;;;;;;1.63;0.93;;;41.10;26.50;;;;;;5015846;28;20037;-54
2022/07/09 13:59:55;;;;;;;7.60;1.10;;;40.20;26.80;;;;;;5014961;28;20030;-56
2022/07/09 14:02:21;;;;;;;3.47;0.93;;;39.60;27.80;;;;;;5011037;28;20061;-58
2022/07/09 14:04:49;;;;;;;;;;;;;;;;;;4997497;28;20061;-56
2022/07/09 14:07:17;;;;;;;3.90;0.98;;;;;;;;;;5002852;28;19917;-56
2022/07/09 14:09:43;;;;;;;2.50;1.00;;;38.30;29.20;;;;;;5004622;28;20131;-57
2022/07/09 14:12:08;;;;;;;;;;;38.70;29.00;;;;;;5015874;28;20022;-56
2022/07/09 14:14:35;;;;;;;5.47;1.20;;;39.50;29.10;;;;;;5015371;28;19909;-53
2022/07/09 14:17:01;;;;;;;2.38;0.95;;;40.70;27.80;;;;;;5015131;28;20026;-56
2022/07/09 14:19:27;;;;;;;7.60;0.98;;;41.60;26.90;;;;;;5015125;28;20022;-54
2022/07/09 14:21:52;;;;;;;;;;;41.20;26.70;;;;;;5011423;28;20037;-56
2022/07/09 14:24:18;;;;;;;2.60;0.82;;;40.80;27.40;;;;;;5013962;28;19935;-56
2022/07/09 14:26:45;;;;;;;;;;;41.40;26.60;;;;;;5014411;28;20018;-54
2022/07/09 14:29:11;;;;;;;1.27;0.70;;;42.10;26.90;;;;;;5013230;28;19960;-57
2022/07/09 14:31:37;;;;;;;2.88;1.02;;;42.90;26.30;;;;;;5015100;28;20486;-54